createdAt,value
2016-12-15T00:00:03.843Z,8.5
2016-12-15T00:00:13.834Z,8.5
2016-12-15T00:00:23.829Z,8.5
2016-12-15T00:00:33.822Z,8.5
2016-12-15T00:00:43.817Z,8.5
2016-12-15T00:00:53.811Z,8.5
2016-12-15T00:01:03.806Z,8.5
2016-12-15T00:01:13.801Z,8.5
2016-12-15T00:01:23.794Z,8.5
2016-12-15T00:01:33.787Z,8.5
2016-12-15T00:01:43.782Z,8.5
2016-12-15T00:01:53.774Z,8.5
2016-12-15T00:02:03.768Z,8.5
2016-12-15T00:02:13.764Z,8.5
2016-12-15T00:02:23.756Z,8.5
2016-12-15T00:02:33.751Z,8.5
2016-12-15T00:02:43.746Z,8.5
2016-12-15T00:02:53.739Z,8.5
2016-12-15T00:03:03.733Z,8.4
2016-12-15T00:03:13.727Z,8.5
2016-12-15T00:03:23.721Z,8.5
2016-12-15T00:03:33.714Z,8.6
2016-12-15T00:03:43.708Z,8.5
2016-12-15T00:03:53.703Z,8.5
2016-12-15T00:04:03.697Z,8.5
2016-12-15T00:04:13.690Z,8.4
2016-12-15T00:04:23.683Z,8.5
2016-12-15T00:04:33.678Z,8.5
2016-12-15T00:04:43.671Z,8.5
2016-12-15T00:04:53.666Z,8.5
2016-12-15T00:05:03.660Z,8.5
2016-12-15T00:05:13.654Z,8.4
2016-12-15T00:05:23.648Z,8.4
2016-12-15T00:05:33.641Z,8.4
2016-12-15T00:05:43.636Z,8.4
2016-12-15T00:05:53.628Z,8.5
2016-12-15T00:06:03.622Z,8.4
2016-12-15T00:06:13.617Z,8.4
2016-12-15T00:06:23.610Z,8.5
2016-12-15T00:06:33.605Z,8.5
2016-12-15T00:06:43.600Z,8.5
2016-12-15T00:06:53.593Z,8.5
2016-12-15T00:07:03.590Z,8.5
2016-12-15T00:07:13.581Z,8.5
2016-12-15T00:07:23.574Z,8.5
2016-12-15T00:07:33.568Z,8.5
2016-12-15T00:07:43.563Z,8.5
2016-12-15T00:07:53.557Z,8.5
2016-12-15T00:08:03.552Z,8.5
2016-12-15T00:08:13.544Z,8.5
2016-12-15T00:08:23.539Z,8.5
2016-12-15T00:08:33.532Z,8.5
2016-12-15T00:08:43.526Z,8.5
2016-12-15T00:08:53.520Z,8.4
2016-12-15T00:09:03.515Z,8.6
2016-12-15T00:09:13.508Z,8.5
2016-12-15T00:09:23.503Z,8.5
2016-12-15T00:09:33.496Z,8.5
2016-12-15T00:09:43.491Z,8.5
2016-12-15T00:09:53.484Z,8.6
2016-12-15T00:10:03.478Z,8.5
2016-12-15T00:10:13.471Z,8.5
2016-12-15T00:10:23.466Z,8.5
2016-12-15T00:10:33.461Z,8.4
2016-12-15T00:10:43.455Z,8.5
2016-12-15T00:10:53.448Z,8.5
2016-12-15T00:11:03.442Z,8.5
2016-12-15T00:11:13.436Z,8.5
2016-12-15T00:11:23.430Z,8.5
2016-12-15T00:11:33.424Z,8.5
2016-12-15T00:11:43.417Z,8.6
2016-12-15T00:11:53.412Z,8.5
2016-12-15T00:12:03.406Z,8.6
2016-12-15T00:12:13.399Z,8.5
2016-12-15T00:12:23.394Z,8.6
2016-12-15T00:12:33.386Z,8.6
2016-12-15T00:12:43.381Z,8.6
2016-12-15T00:12:53.375Z,8.5
2016-12-15T00:13:03.369Z,8.5
2016-12-15T00:13:13.362Z,8.5
2016-12-15T00:13:23.358Z,8.5
2016-12-15T00:13:33.350Z,8.5
2016-12-15T00:13:43.345Z,8.5
2016-12-15T00:13:53.339Z,8.5
2016-12-15T00:14:03.332Z,8.5
2016-12-15T00:14:13.326Z,8.4
2016-12-15T00:14:23.321Z,8.5
2016-12-15T00:14:33.315Z,8.5
2016-12-15T00:14:43.309Z,8.5
2016-12-15T00:14:53.303Z,8.5
2016-12-15T00:15:03.297Z,8.5
2016-12-15T00:15:13.290Z,8.5
2016-12-15T00:15:23.284Z,8.5
2016-12-15T00:15:33.277Z,8.6
2016-12-15T00:15:43.272Z,8.5
2016-12-15T00:15:53.267Z,8.5
2016-12-15T00:16:03.260Z,8.6
2016-12-15T00:16:13.271Z,8.5
2016-12-15T00:16:23.247Z,8.5
2016-12-15T00:16:33.242Z,8.5
2016-12-15T00:16:43.235Z,8.5
2016-12-15T00:16:53.230Z,8.4
2016-12-15T00:17:03.223Z,8.5
2016-12-15T00:17:13.217Z,8.4
2016-12-15T00:17:23.212Z,8.4
2016-12-15T00:17:33.206Z,8.5
2016-12-15T00:17:43.199Z,8.5
2016-12-15T00:17:53.192Z,8.5
2016-12-15T00:18:03.186Z,8.4
2016-12-15T00:18:13.182Z,8.6
2016-12-15T00:18:23.175Z,8.5
2016-12-15T00:18:33.168Z,8.5
2016-12-15T00:18:43.164Z,8.4
2016-12-15T00:18:53.156Z,8.4
2016-12-15T00:19:03.152Z,8.5
2016-12-15T00:19:13.145Z,8.4
2016-12-15T00:19:23.139Z,8.5
2016-12-15T00:19:33.134Z,8.4
2016-12-15T00:19:43.127Z,8.4
2016-12-15T00:19:53.120Z,8.5
2016-12-15T00:20:03.115Z,8.5
2016-12-15T00:20:13.109Z,8.5
2016-12-15T00:20:23.103Z,8.5
2016-12-15T00:20:33.097Z,8.4
2016-12-15T00:20:43.091Z,8.5
2016-12-15T00:20:53.084Z,8.5
2016-12-15T00:21:03.077Z,8.5
2016-12-15T00:21:13.071Z,8.5
2016-12-15T00:21:23.068Z,8.5
2016-12-15T00:21:33.060Z,8.5
2016-12-15T00:21:43.055Z,8.5
2016-12-15T00:21:53.048Z,8.5
2016-12-15T00:22:03.042Z,8.5
2016-12-15T00:22:13.036Z,8.5
2016-12-15T00:22:23.028Z,8.5
2016-12-15T00:22:33.023Z,8.5
2016-12-15T00:22:43.018Z,8.5
2016-12-15T00:22:53.012Z,8.5
2016-12-15T00:23:03.006Z,8.5
2016-12-15T00:23:12.999Z,8.5
2016-12-15T00:23:22.995Z,8.4
2016-12-15T00:23:32.987Z,8.5
2016-12-15T00:23:42.981Z,8.5
2016-12-15T00:23:52.975Z,8.5
2016-12-15T00:24:02.970Z,8.5
2016-12-15T00:24:12.964Z,8.5
2016-12-15T00:24:22.958Z,8.5
2016-12-15T00:24:32.951Z,8.5
2016-12-15T00:24:42.945Z,8.3
2016-12-15T00:24:52.938Z,8.4
2016-12-15T00:25:02.931Z,8.4
2016-12-15T00:25:12.926Z,8.5
2016-12-15T00:25:22.922Z,8.5
2016-12-15T00:25:32.915Z,8.5
2016-12-15T00:25:42.909Z,8.4
2016-12-15T00:25:52.903Z,8.5
2016-12-15T00:26:02.896Z,8.5
2016-12-15T00:26:12.891Z,8.4
2016-12-15T00:26:22.884Z,8.4
2016-12-15T00:26:32.879Z,8.4
2016-12-15T00:26:42.873Z,8.4
2016-12-15T00:26:52.866Z,8.4
2016-12-15T00:27:02.861Z,8.5
2016-12-15T00:27:12.854Z,8.4
2016-12-15T00:27:22.849Z,8.5
2016-12-15T00:27:32.842Z,8.5
2016-12-15T00:27:42.835Z,8.5
2016-12-15T00:27:52.830Z,8.4
2016-12-15T00:28:02.825Z,8.4
2016-12-15T00:28:12.817Z,8.4
2016-12-15T00:28:22.812Z,8.4
2016-12-15T00:28:32.806Z,8.4
2016-12-15T00:28:42.799Z,8.5
2016-12-15T00:28:52.793Z,8.4
2016-12-15T00:29:02.786Z,8.5
2016-12-15T00:29:12.782Z,8.5
2016-12-15T00:29:22.775Z,8.4
2016-12-15T00:29:32.768Z,8.5
2016-12-15T00:29:42.764Z,8.4
2016-12-15T00:29:52.756Z,8.5
2016-12-15T00:30:02.751Z,8.4
2016-12-15T00:30:12.746Z,8.5
2016-12-15T00:30:22.738Z,8.4
2016-12-15T00:30:32.732Z,8.4
2016-12-15T00:30:42.727Z,8.4
2016-12-15T00:30:52.719Z,8.4
2016-12-15T00:31:02.714Z,8.4
2016-12-15T00:31:12.708Z,8.4
2016-12-15T00:31:22.703Z,8.5
2016-12-15T00:31:32.697Z,8.4
2016-12-15T00:31:42.690Z,8.4
2016-12-15T00:31:52.685Z,8.4
2016-12-15T00:32:02.679Z,8.4
2016-12-15T00:32:12.675Z,8.5
2016-12-15T00:32:22.665Z,8.5
2016-12-15T00:32:32.660Z,8.4
2016-12-15T00:32:42.655Z,8.4
2016-12-15T00:32:52.649Z,8.3
2016-12-15T00:33:02.642Z,8.4
2016-12-15T00:33:12.635Z,8.4
2016-12-15T00:33:22.630Z,8.4
2016-12-15T00:33:32.624Z,8.4
2016-12-15T00:33:42.618Z,8.3
2016-12-15T00:33:52.610Z,8.4
2016-12-15T00:34:02.605Z,8.3
2016-12-15T00:34:12.599Z,8.4
2016-12-15T00:34:22.592Z,8.3
2016-12-15T00:34:32.586Z,8.3
2016-12-15T00:34:42.582Z,8.3
2016-12-15T00:34:52.575Z,8.3
2016-12-15T00:35:02.569Z,8.4
2016-12-15T00:35:12.564Z,8.4
2016-12-15T00:35:22.557Z,8.3
2016-12-15T00:35:32.553Z,8.4
2016-12-15T00:35:42.545Z,8.4
2016-12-15T00:35:52.539Z,8.3
2016-12-15T00:36:02.532Z,8.4
2016-12-15T00:36:12.526Z,8.4
2016-12-15T00:36:22.522Z,8.3
2016-12-15T00:36:32.514Z,8.4
2016-12-15T00:36:42.510Z,8.4
2016-12-15T00:36:52.501Z,8.4
2016-12-15T00:37:02.496Z,8.4
2016-12-15T00:37:12.490Z,8.4
2016-12-15T00:37:22.486Z,8.3
2016-12-15T00:37:32.478Z,8.4
2016-12-15T00:37:42.473Z,8.4
2016-12-15T00:37:52.466Z,8.4
2016-12-15T00:38:02.460Z,8.4
2016-12-15T00:38:12.455Z,8.4
2016-12-15T00:38:22.448Z,8.4
2016-12-15T00:38:32.441Z,8.4
2016-12-15T00:38:42.439Z,8.4
2016-12-15T00:38:52.430Z,8.4
2016-12-15T00:39:02.423Z,8.3
2016-12-15T00:39:12.417Z,8.2
2016-12-15T00:39:22.411Z,8.3
2016-12-15T00:39:32.405Z,8.2
2016-12-15T00:39:42.398Z,8.2
2016-12-15T00:39:52.393Z,8.2
2016-12-15T00:40:02.387Z,8.2
2016-12-15T00:40:12.380Z,8.2
2016-12-15T00:40:22.374Z,8.3
2016-12-15T00:40:32.369Z,8.3
2016-12-15T00:40:42.362Z,8.3
2016-12-15T00:40:52.358Z,8.3
2016-12-15T00:41:02.351Z,8.4
2016-12-15T00:41:12.343Z,8.3
2016-12-15T00:41:22.339Z,8.3
2016-12-15T00:41:32.332Z,8.3
2016-12-15T00:41:42.327Z,8.4
2016-12-15T00:41:52.321Z,8.2
2016-12-15T00:42:02.316Z,8.2
2016-12-15T00:42:12.307Z,8.3
2016-12-15T00:42:22.302Z,8.3
2016-12-15T00:42:32.297Z,8.3
2016-12-15T00:42:42.290Z,8.4
2016-12-15T00:42:52.284Z,8.3
2016-12-15T00:43:02.279Z,8.4
2016-12-15T00:43:12.272Z,8.4
2016-12-15T00:43:22.267Z,8.4
2016-12-15T00:43:32.261Z,8.3
2016-12-15T00:43:42.254Z,8.4
2016-12-15T00:43:52.247Z,8.4
2016-12-15T00:44:02.242Z,8.4
2016-12-15T00:44:12.234Z,8.4
2016-12-15T00:44:22.230Z,8.3
2016-12-15T00:44:32.225Z,8.3
2016-12-15T00:44:42.218Z,8.3
2016-12-15T00:44:52.212Z,8.3
2016-12-15T00:45:02.206Z,8.4
2016-12-15T00:45:12.199Z,8.3
2016-12-15T00:45:22.192Z,8.3
2016-12-15T00:45:32.186Z,8.4
2016-12-15T00:45:42.181Z,8.3
2016-12-15T00:45:52.175Z,8.2
2016-12-15T00:46:02.169Z,8.4
2016-12-15T00:46:12.163Z,8.3
2016-12-15T00:46:22.155Z,8.3
2016-12-15T00:46:32.151Z,8.3
2016-12-15T00:46:42.146Z,8.3
2016-12-15T00:46:52.137Z,8.3
2016-12-15T00:47:02.132Z,8.2
2016-12-15T00:47:12.126Z,8.2
2016-12-15T00:47:22.120Z,8.3
2016-12-15T00:47:32.115Z,8.3
2016-12-15T00:47:42.108Z,8.2
2016-12-15T00:47:52.101Z,8.3
2016-12-15T00:48:02.096Z,8.2
2016-12-15T00:48:12.090Z,8.3
2016-12-15T00:48:22.084Z,8.2
2016-12-15T00:48:32.078Z,8.3
2016-12-15T00:48:42.072Z,8.3
2016-12-15T00:48:52.066Z,8.3
2016-12-15T00:49:02.058Z,8.2
2016-12-15T00:49:12.052Z,8.3
2016-12-15T00:49:22.048Z,8.2
2016-12-15T00:49:32.040Z,8.2
2016-12-15T00:49:42.035Z,8.3
2016-12-15T00:49:52.029Z,8.2
2016-12-15T00:50:02.022Z,8.3
2016-12-15T00:50:12.018Z,8.3
2016-12-15T00:50:22.012Z,8.2
2016-12-15T00:50:32.011Z,8.2
2016-12-15T00:50:42.000Z,8.2
2016-12-15T00:50:51.993Z,8.3
2016-12-15T00:51:01.987Z,8.3
2016-12-15T00:51:11.980Z,8.2
2016-12-15T00:51:21.975Z,8.2
2016-12-15T00:51:31.968Z,8.2
2016-12-15T00:51:41.963Z,8.2
2016-12-15T00:51:51.957Z,8.2
2016-12-15T00:52:01.951Z,8.2
2016-12-15T00:52:11.943Z,8.3
2016-12-15T00:52:21.937Z,8.3
2016-12-15T00:52:31.932Z,8.2
2016-12-15T00:52:41.926Z,8.3
2016-12-15T00:52:51.921Z,8.2
2016-12-15T00:53:01.913Z,8.1
2016-12-15T00:53:11.909Z,8.2
2016-12-15T00:53:21.902Z,8.2
2016-12-15T00:53:31.895Z,8.2
2016-12-15T00:53:41.890Z,8.2
2016-12-15T00:53:51.885Z,8.1
2016-12-15T00:54:01.878Z,8.1
2016-12-15T00:54:11.872Z,8.2
2016-12-15T00:54:21.865Z,8.2
2016-12-15T00:54:31.858Z,8.2
2016-12-15T00:54:41.854Z,8.1
2016-12-15T00:54:51.846Z,8.2
2016-12-15T00:55:01.840Z,8.2
2016-12-15T00:55:11.834Z,8.1
2016-12-15T00:55:21.828Z,8.1
2016-12-15T00:55:31.824Z,8.2
2016-12-15T00:55:41.817Z,8.2
2016-12-15T00:55:51.812Z,8.2
2016-12-15T00:56:01.804Z,8.2
2016-12-15T00:56:11.798Z,8.2
2016-12-15T00:56:21.793Z,8.1
2016-12-15T00:56:31.786Z,8.1
2016-12-15T00:56:41.780Z,8.1
2016-12-15T00:56:51.775Z,8.2
2016-12-15T00:57:01.768Z,8.3
2016-12-15T00:57:11.763Z,8.1
2016-12-15T00:57:21.757Z,8.1
2016-12-15T00:57:31.749Z,8.2
2016-12-15T00:57:41.743Z,8.2
2016-12-15T00:57:51.738Z,8.2
2016-12-15T00:58:01.732Z,8.2
2016-12-15T00:58:11.726Z,8.3
2016-12-15T00:58:21.719Z,8.2
2016-12-15T00:58:31.718Z,8.2
2016-12-15T00:58:41.707Z,8.2
2016-12-15T00:58:51.702Z,8.2
2016-12-15T00:59:01.695Z,8.2
2016-12-15T00:59:11.689Z,8.1
2016-12-15T00:59:21.684Z,8.2
2016-12-15T00:59:31.678Z,8.1
2016-12-15T00:59:41.670Z,8.1
2016-12-15T00:59:51.665Z,8.1
2016-12-15T01:00:01.659Z,8.3
2016-12-15T01:00:11.651Z,8.1
2016-12-15T01:00:21.646Z,8.3
2016-12-15T01:00:31.640Z,8.2
2016-12-15T01:00:41.634Z,8.1
2016-12-15T01:00:51.630Z,8.2
2016-12-15T01:01:01.623Z,8.1
2016-12-15T01:01:11.615Z,8.1
2016-12-15T01:01:21.610Z,8.1
2016-12-15T01:01:31.604Z,8.1
2016-12-15T01:01:41.597Z,8.2
2016-12-15T01:01:51.610Z,8.1
2016-12-15T01:02:01.586Z,8.1
2016-12-15T01:02:11.579Z,8.2
2016-12-15T01:02:21.573Z,8.1
2016-12-15T01:02:31.568Z,8.1
2016-12-15T01:02:41.562Z,8.2
2016-12-15T01:02:51.556Z,8.1
2016-12-15T01:03:01.549Z,8.1
2016-12-15T01:03:11.542Z,8
2016-12-15T01:03:21.537Z,8.1
2016-12-15T01:03:31.532Z,8.1
2016-12-15T01:03:41.526Z,8.2
2016-12-15T01:03:51.518Z,8.2
2016-12-15T01:04:01.514Z,8.1
2016-12-15T01:04:11.507Z,8.1
2016-12-15T01:04:21.502Z,8.1
2016-12-15T01:04:31.495Z,8.1
2016-12-15T01:04:41.489Z,8
2016-12-15T01:04:51.484Z,8.1
2016-12-15T01:05:01.477Z,8.1
2016-12-15T01:05:11.471Z,8.1
2016-12-15T01:05:21.464Z,8.1
2016-12-15T01:05:31.459Z,8.2
2016-12-15T01:05:41.452Z,8.1
2016-12-15T01:05:51.446Z,8.1
2016-12-15T01:06:01.440Z,8.2
2016-12-15T01:06:11.434Z,8.1
2016-12-15T01:06:21.428Z,8.1
2016-12-15T01:06:31.423Z,8.1
2016-12-15T01:06:41.417Z,8.1
2016-12-15T01:06:51.409Z,8.1
2016-12-15T01:07:01.403Z,8.2
2016-12-15T01:07:11.396Z,8.1
2016-12-15T01:07:21.392Z,8.2
2016-12-15T01:07:31.386Z,8.1
2016-12-15T01:07:41.380Z,8.1
2016-12-15T01:07:51.374Z,8.2
2016-12-15T01:08:01.368Z,8.2
2016-12-15T01:08:11.361Z,8.2
2016-12-15T01:08:21.355Z,8.2
2016-12-15T01:08:31.348Z,8.2
2016-12-15T01:08:41.344Z,8.2
2016-12-15T01:08:51.338Z,8.2
2016-12-15T01:09:01.331Z,8.2
2016-12-15T01:09:11.325Z,8.1
2016-12-15T01:09:21.318Z,8.1
2016-12-15T01:09:31.313Z,8.1
2016-12-15T01:09:41.308Z,8.2
2016-12-15T01:09:51.300Z,8.1
2016-12-15T01:10:01.294Z,8.1
2016-12-15T01:10:11.289Z,8.2
2016-12-15T01:10:21.282Z,8.1
2016-12-15T01:10:31.277Z,8.1
2016-12-15T01:10:41.270Z,8.2
2016-12-15T01:10:51.263Z,8.2
2016-12-15T01:11:01.258Z,8.2
2016-12-15T01:11:11.251Z,8.1
2016-12-15T01:11:21.246Z,8.1
2016-12-15T01:11:31.239Z,8.1
2016-12-15T01:11:41.234Z,8.2
2016-12-15T01:11:51.228Z,8.2
2016-12-15T01:12:01.223Z,8
2016-12-15T01:12:11.214Z,8.1
2016-12-15T01:12:21.208Z,8.1
2016-12-15T01:12:31.204Z,8.1
2016-12-15T01:12:41.197Z,8.1
2016-12-15T01:12:51.192Z,8
2016-12-15T01:13:01.185Z,8.1
2016-12-15T01:13:11.179Z,8.1
2016-12-15T01:13:21.174Z,8.2
2016-12-15T01:13:31.167Z,8.1
2016-12-15T01:13:41.160Z,8.1
2016-12-15T01:13:51.155Z,8.1
2016-12-15T01:14:01.147Z,8.2
2016-12-15T01:14:11.143Z,8.1
2016-12-15T01:14:21.137Z,8.1
2016-12-15T01:14:31.131Z,8.1
2016-12-15T01:14:41.124Z,8.1
2016-12-15T01:14:51.119Z,8.1
2016-12-15T01:15:01.113Z,8.1
2016-12-15T01:15:11.106Z,8.1
2016-12-15T01:15:21.100Z,8
2016-12-15T01:15:51.083Z,8.2
2016-12-15T01:16:02.088Z,8.1
2016-12-15T01:16:11.069Z,8.2
2016-12-15T01:16:32.057Z,8.2
2016-12-15T01:16:41.418Z,8.2
2016-12-15T01:16:51.412Z,8.2
2016-12-15T01:17:01.406Z,8.1
2016-12-15T01:17:11.399Z,8.1
2016-12-15T01:17:21.395Z,8.1
2016-12-15T01:17:31.388Z,8.1
2016-12-15T01:17:41.382Z,8.1
2016-12-15T01:17:51.377Z,8.1
2016-12-15T01:18:01.370Z,8
2016-12-15T01:18:11.363Z,8.1
2016-12-15T01:18:21.357Z,8.1
2016-12-15T01:18:31.351Z,8
2016-12-15T01:18:41.344Z,8.1
2016-12-15T01:18:51.339Z,8
2016-12-15T01:19:01.334Z,8.1
2016-12-15T01:19:11.328Z,8
2016-12-15T01:19:21.321Z,8.1
2016-12-15T01:19:31.315Z,8.1
2016-12-15T01:19:41.308Z,8.1
2016-12-15T01:19:51.302Z,8
2016-12-15T01:20:01.297Z,8
2016-12-15T01:20:11.290Z,8.1
2016-12-15T01:20:21.283Z,8
2016-12-15T01:20:31.279Z,8
2016-12-15T01:20:41.272Z,8
2016-12-15T01:20:51.265Z,8
2016-12-15T01:21:01.261Z,8
2016-12-15T01:21:11.253Z,8
2016-12-15T01:21:21.248Z,8
2016-12-15T01:21:31.243Z,7.9
2016-12-15T01:21:41.237Z,7.9
2016-12-15T01:21:51.231Z,8
2016-12-15T01:22:01.224Z,8
2016-12-15T01:22:11.217Z,8
2016-12-15T01:22:21.211Z,7.9
2016-12-15T01:22:31.204Z,7.9
2016-12-15T01:22:41.200Z,7.9
2016-12-15T01:22:51.194Z,8
2016-12-15T01:23:01.187Z,7.9
2016-12-15T01:23:11.182Z,8
2016-12-15T01:23:21.175Z,7.9
2016-12-15T01:23:31.170Z,7.9
2016-12-15T01:23:41.163Z,8
2016-12-15T01:23:51.157Z,7.9
2016-12-15T01:24:01.150Z,8
2016-12-15T01:24:11.146Z,7.9
2016-12-15T01:24:21.139Z,8
2016-12-15T01:24:31.133Z,8
2016-12-15T01:24:41.127Z,7.9
2016-12-15T01:24:51.120Z,7.9
2016-12-15T01:25:01.114Z,7.9
2016-12-15T01:25:11.109Z,7.9
2016-12-15T01:25:21.103Z,8
2016-12-15T01:25:31.096Z,8
2016-12-15T01:25:41.090Z,8
2016-12-15T01:25:51.084Z,8
2016-12-15T01:26:01.078Z,7.9
2016-12-15T01:26:11.071Z,7.9
2016-12-15T01:26:21.067Z,8
2016-12-15T01:26:31.059Z,7.9
2016-12-15T01:26:41.053Z,7.9
2016-12-15T01:26:51.049Z,7.9
2016-12-15T01:27:01.042Z,7.9
2016-12-15T01:27:11.034Z,7.9
2016-12-15T01:27:21.028Z,7.9
2016-12-15T01:27:31.024Z,7.9
2016-12-15T01:27:41.017Z,8
2016-12-15T01:27:51.011Z,7.9
2016-12-15T01:28:01.005Z,7.9
2016-12-15T01:28:11.000Z,8
2016-12-15T01:28:20.992Z,8
2016-12-15T01:28:30.987Z,7.9
2016-12-15T01:28:40.981Z,7.9
2016-12-15T01:28:50.973Z,7.9
2016-12-15T01:29:00.970Z,7.9
2016-12-15T01:29:10.961Z,7.9
2016-12-15T01:29:20.957Z,7.9
2016-12-15T01:29:30.951Z,7.9
2016-12-15T01:29:40.944Z,8
2016-12-15T01:29:50.939Z,7.9
2016-12-15T01:30:00.932Z,8
2016-12-15T01:30:10.925Z,7.9
2016-12-15T01:30:20.921Z,8
2016-12-15T01:30:30.915Z,7.9
2016-12-15T01:30:40.907Z,7.9
2016-12-15T01:30:50.901Z,7.9
2016-12-15T01:31:00.896Z,7.9
2016-12-15T01:31:10.889Z,8
2016-12-15T01:31:20.883Z,8
2016-12-15T01:31:30.880Z,7.9
2016-12-15T01:31:40.876Z,7.9
2016-12-15T01:31:50.864Z,7.9
2016-12-15T01:32:00.858Z,7.9
2016-12-15T01:32:10.854Z,7.8
2016-12-15T01:32:20.848Z,7.8
2016-12-15T01:32:30.842Z,7.9
2016-12-15T01:32:40.835Z,7.9
2016-12-15T01:32:50.829Z,7.9
2016-12-15T01:33:00.824Z,7.9
2016-12-15T01:33:10.817Z,7.8
2016-12-15T01:33:20.811Z,7.9
2016-12-15T01:33:30.805Z,7.8
2016-12-15T01:33:40.799Z,7.8
2016-12-15T01:33:50.793Z,7.8
2016-12-15T01:34:00.787Z,7.8
2016-12-15T01:34:10.781Z,7.9
2016-12-15T01:34:20.775Z,7.8
2016-12-15T01:34:30.767Z,7.9
2016-12-15T01:34:40.761Z,7.9
2016-12-15T01:34:50.757Z,7.9
2016-12-15T01:35:00.750Z,7.9
2016-12-15T01:35:10.744Z,7.8
2016-12-15T01:35:20.738Z,7.8
2016-12-15T01:35:30.731Z,7.8
2016-12-15T01:35:40.725Z,7.8
2016-12-15T01:35:50.718Z,7.8
2016-12-15T01:36:00.713Z,7.8
2016-12-15T01:36:10.708Z,7.8
2016-12-15T01:36:20.701Z,7.7
2016-12-15T01:36:30.695Z,7.8
2016-12-15T01:36:40.689Z,7.8
2016-12-15T01:36:50.684Z,7.8
2016-12-15T01:37:00.677Z,7.7
2016-12-15T01:37:10.670Z,7.8
2016-12-15T01:37:20.664Z,7.7
2016-12-15T01:37:30.659Z,7.7
2016-12-15T01:37:40.652Z,7.7
2016-12-15T01:37:50.647Z,7.7
2016-12-15T01:38:00.640Z,7.7
2016-12-15T01:38:10.635Z,7.7
2016-12-15T01:38:20.629Z,7.8
2016-12-15T01:38:30.622Z,7.7
2016-12-15T01:38:40.615Z,7.8
2016-12-15T01:38:50.611Z,7.7
2016-12-15T01:39:00.603Z,7.8
2016-12-15T01:39:10.598Z,7.8
2016-12-15T01:39:20.591Z,7.7
2016-12-15T01:39:30.587Z,7.7
2016-12-15T01:39:40.580Z,7.7
2016-12-15T01:39:50.573Z,7.7
2016-12-15T01:40:00.568Z,7.8
2016-12-15T01:40:10.562Z,7.7
2016-12-15T01:40:20.554Z,7.8
2016-12-15T01:40:30.549Z,7.7
2016-12-15T01:40:40.543Z,7.7
2016-12-15T01:40:50.536Z,7.7
2016-12-15T01:41:00.530Z,7.7
2016-12-15T01:41:10.523Z,7.7
2016-12-15T01:41:20.518Z,7.7
2016-12-15T01:41:30.517Z,7.7
2016-12-15T01:41:40.506Z,7.7
2016-12-15T01:41:50.500Z,7.7
2016-12-15T01:42:00.494Z,7.7
2016-12-15T01:42:10.502Z,7.6
2016-12-15T01:42:20.482Z,7.7
2016-12-15T01:42:30.475Z,7.7
2016-12-15T01:42:40.470Z,7.6
2016-12-15T01:42:50.465Z,7.7
2016-12-15T01:43:00.457Z,7.7
2016-12-15T01:43:10.452Z,7.7
2016-12-15T01:43:20.445Z,7.8
2016-12-15T01:43:30.438Z,7.8
2016-12-15T01:43:40.432Z,7.7
2016-12-15T01:43:50.427Z,7.7
2016-12-15T01:44:00.421Z,7.7
2016-12-15T01:44:10.414Z,7.7
2016-12-15T01:44:20.409Z,7.7
2016-12-15T01:44:30.403Z,7.7
2016-12-15T01:44:40.396Z,7.6
2016-12-15T01:44:50.391Z,7.7
2016-12-15T01:45:00.385Z,7.7
2016-12-15T01:45:10.378Z,7.7
2016-12-15T01:45:20.373Z,7.7
2016-12-15T01:45:30.367Z,7.6
2016-12-15T01:45:40.360Z,7.6
2016-12-15T01:45:50.353Z,7.6
2016-12-15T01:46:00.348Z,7.6
2016-12-15T01:46:10.342Z,7.6
2016-12-15T01:46:20.335Z,7.6
2016-12-15T01:46:30.328Z,7.5
2016-12-15T01:46:40.323Z,7.7
2016-12-15T01:46:50.318Z,7.6
2016-12-15T01:47:00.310Z,7.6
2016-12-15T01:47:10.305Z,7.6
2016-12-15T01:47:20.299Z,7.6
2016-12-15T01:47:30.293Z,7.6
2016-12-15T01:47:40.286Z,7.6
2016-12-15T01:47:50.279Z,7.5
2016-12-15T01:48:00.275Z,7.6
2016-12-15T01:48:10.269Z,7.6
2016-12-15T01:48:20.262Z,7.5
2016-12-15T01:48:30.256Z,7.6
2016-12-15T01:48:40.250Z,7.6
2016-12-15T01:48:50.244Z,7.6
2016-12-15T01:49:00.240Z,7.5
2016-12-15T01:49:10.232Z,7.5
2016-12-15T01:49:20.226Z,7.5
2016-12-15T01:49:30.220Z,7.6
2016-12-15T01:49:40.213Z,7.6
2016-12-15T01:49:50.208Z,7.7
2016-12-15T01:50:00.201Z,7.6
2016-12-15T01:50:10.194Z,7.6
2016-12-15T01:50:20.189Z,7.5
2016-12-15T01:50:30.284Z,7.5
2016-12-15T01:50:40.176Z,7.6
2016-12-15T01:50:50.170Z,7.4
2016-12-15T01:51:00.164Z,7.6
2016-12-15T01:51:10.157Z,7.5
2016-12-15T01:51:20.153Z,7.5
2016-12-15T01:51:30.147Z,7.6
2016-12-15T01:51:40.140Z,7.6
2016-12-15T01:51:50.133Z,7.5
2016-12-15T01:52:00.128Z,7.6
2016-12-15T01:52:10.121Z,7.6
2016-12-15T01:52:20.114Z,7.5
2016-12-15T01:52:30.111Z,7.6
2016-12-15T01:52:40.103Z,7.5
2016-12-15T01:52:50.098Z,7.5
2016-12-15T01:53:00.091Z,7.6
2016-12-15T01:53:10.083Z,7.6
2016-12-15T01:53:20.079Z,7.5
2016-12-15T01:53:30.073Z,7.6
2016-12-15T01:53:40.067Z,7.5
2016-12-15T01:53:50.061Z,7.5
2016-12-15T01:54:00.055Z,7.6
2016-12-15T01:54:10.049Z,7.5
2016-12-15T01:54:20.043Z,7.6
2016-12-15T01:54:30.035Z,7.5
2016-12-15T01:54:40.029Z,7.6
2016-12-15T01:54:50.025Z,7.5
2016-12-15T01:55:00.017Z,7.5
2016-12-15T01:55:10.013Z,7.5
2016-12-15T01:55:20.004Z,7.5
2016-12-15T01:55:30.000Z,7.4
2016-12-15T01:55:39.994Z,7.5
2016-12-15T01:55:49.987Z,7.5
2016-12-15T01:55:59.982Z,7.5
2016-12-15T01:56:09.977Z,7.5
2016-12-15T01:56:19.970Z,7.5
2016-12-15T01:56:29.964Z,7.4
2016-12-15T01:56:39.957Z,7.5
2016-12-15T01:56:49.952Z,7.5
2016-12-15T01:56:59.945Z,7.6
2016-12-15T01:57:09.938Z,7.6
2016-12-15T01:57:19.933Z,7.5
2016-12-15T01:57:29.927Z,7.6
2016-12-15T01:57:39.921Z,7.5
2016-12-15T01:57:49.913Z,7.5
2016-12-15T01:57:59.907Z,7.5
2016-12-15T01:58:09.903Z,7.5
2016-12-15T01:58:19.896Z,7.5
2016-12-15T01:58:29.889Z,7.6
2016-12-15T01:58:39.883Z,7.5
2016-12-15T01:58:49.878Z,7.5
2016-12-15T01:58:59.872Z,7.6
2016-12-15T01:59:09.866Z,7.5
2016-12-15T01:59:19.860Z,7.6
2016-12-15T01:59:29.854Z,7.4
2016-12-15T01:59:39.849Z,7.5
2016-12-15T01:59:49.841Z,7.5
2016-12-15T01:59:59.835Z,7.5
2016-12-15T02:00:09.828Z,7.6
2016-12-15T02:00:19.823Z,7.5
2016-12-15T02:00:29.817Z,7.5
2016-12-15T02:00:39.810Z,7.5
2016-12-15T02:00:49.804Z,7.5
2016-12-15T02:00:59.799Z,7.4
2016-12-15T02:01:09.792Z,7.5
2016-12-15T02:01:19.786Z,7.5
2016-12-15T02:01:29.781Z,7.5
2016-12-15T02:01:39.774Z,7.5
2016-12-15T02:01:49.769Z,7.5
2016-12-15T02:01:59.761Z,7.5
2016-12-15T02:02:09.757Z,7.5
2016-12-15T02:02:19.750Z,7.5
2016-12-15T02:02:29.743Z,7.5
2016-12-15T02:02:39.738Z,7.5
2016-12-15T02:02:49.732Z,7.5
2016-12-15T02:02:59.725Z,7.4
2016-12-15T02:03:09.719Z,7.5
2016-12-15T02:03:19.713Z,7.5
2016-12-15T02:03:29.707Z,7.4
2016-12-15T02:03:39.702Z,7.4
2016-12-15T02:03:49.693Z,7.4
2016-12-15T02:03:59.688Z,7.5
2016-12-15T02:04:09.683Z,7.6
2016-12-15T02:04:19.676Z,7.5
2016-12-15T02:04:29.671Z,7.5
2016-12-15T02:04:39.664Z,7.5
2016-12-15T02:04:49.658Z,7.5
2016-12-15T02:04:59.652Z,7.5
2016-12-15T02:05:09.644Z,7.5
2016-12-15T02:05:19.640Z,7.5
2016-12-15T02:05:29.633Z,7.5
2016-12-15T02:05:39.627Z,7.5
2016-12-15T02:05:49.621Z,7.5
2016-12-15T02:05:59.616Z,7.5
2016-12-15T02:06:09.609Z,7.4
2016-12-15T02:06:19.602Z,7.5
2016-12-15T02:06:29.596Z,7.5
2016-12-15T02:06:39.589Z,7.4
2016-12-15T02:06:49.584Z,7.5
2016-12-15T02:06:59.578Z,7.5
2016-12-15T02:07:09.573Z,7.5
2016-12-15T02:07:19.566Z,7.4
2016-12-15T02:07:29.560Z,7.5
2016-12-15T02:07:39.554Z,7.5
2016-12-15T02:07:49.547Z,7.5
2016-12-15T02:07:59.542Z,7.5
2016-12-15T02:08:09.536Z,7.4
2016-12-15T02:08:19.529Z,7.4
2016-12-15T02:08:29.523Z,7.4
2016-12-15T02:08:39.518Z,7.3
2016-12-15T02:08:49.512Z,7.3
2016-12-15T02:08:59.504Z,7.3
2016-12-15T02:09:09.499Z,7.4
2016-12-15T02:09:19.493Z,7.5
2016-12-15T02:09:29.487Z,7.5
2016-12-15T02:09:39.479Z,7.5
2016-12-15T02:09:49.473Z,7.4
2016-12-15T02:09:59.469Z,7.5
2016-12-15T02:10:09.463Z,7.4
2016-12-15T02:10:19.457Z,7.4
2016-12-15T02:10:29.449Z,7.5
2016-12-15T02:10:39.443Z,7.5
2016-12-15T02:10:49.438Z,7.5
2016-12-15T02:10:59.432Z,7.5
2016-12-15T02:11:09.426Z,7.5
2016-12-15T02:11:19.418Z,7.5
2016-12-15T02:11:29.412Z,7.5
2016-12-15T02:11:39.408Z,7.5
2016-12-15T02:11:49.400Z,7.5
2016-12-15T02:11:59.394Z,7.4
2016-12-15T02:12:09.389Z,7.4
2016-12-15T02:12:19.382Z,7.4
2016-12-15T02:12:29.377Z,7.5
2016-12-15T02:12:39.371Z,7.4
2016-12-15T02:12:49.364Z,7.4
2016-12-15T02:12:59.359Z,7.4
2016-12-15T02:13:09.351Z,7.4
2016-12-15T02:13:19.346Z,7.5
2016-12-15T02:13:29.341Z,7.3
2016-12-15T02:13:39.334Z,7.5
2016-12-15T02:13:49.328Z,7.5
2016-12-15T02:13:59.321Z,7.5
2016-12-15T02:14:09.315Z,7.4
2016-12-15T02:14:19.310Z,7.4
2016-12-15T02:14:29.302Z,7.5
2016-12-15T02:14:39.297Z,7.4
2016-12-15T02:14:49.291Z,7.3
2016-12-15T02:14:59.284Z,7.5
2016-12-15T02:15:09.279Z,7.5
2016-12-15T02:15:19.272Z,7.5
2016-12-15T02:15:29.266Z,7.4
2016-12-15T02:15:39.259Z,7.4
2016-12-15T02:15:49.253Z,7.5
2016-12-15T02:15:59.248Z,7.4
2016-12-15T02:16:09.243Z,7.4
2016-12-15T02:16:19.236Z,7.5
2016-12-15T02:16:29.230Z,7.4
2016-12-15T02:16:39.223Z,7.5
2016-12-15T02:16:49.218Z,7.4
2016-12-15T02:16:59.210Z,7.4
2016-12-15T02:17:09.205Z,7.4
2016-12-15T02:17:19.200Z,7.4
2016-12-15T02:17:29.194Z,7.4
2016-12-15T02:17:39.187Z,7.4
2016-12-15T02:17:49.181Z,7.4
2016-12-15T02:17:59.174Z,7.4
2016-12-15T02:18:09.167Z,7.4
2016-12-15T02:18:19.163Z,7.3
2016-12-15T02:18:29.156Z,7.3